createdAt,value
2018-05-15T12:10:10.027Z,62.90
2018-05-15T12:12:37.496Z,63.00
2018-05-15T12:15:04.997Z,65.00
2018-05-15T12:17:32.346Z,65.70
2018-05-15T12:20:01.675Z,67.20
2018-05-15T12:22:29.866Z,66.70
2018-05-15T12:24:57.555Z,66.60
2018-05-15T12:27:25.047Z,67.00
2018-05-15T12:29:53.307Z,70.70
2018-05-15T12:32:20.715Z,70.70
2018-05-15T12:34:48.185Z,73.10
2018-05-15T12:37:15.647Z,69.60
2018-05-15T12:39:43.086Z,77.90
2018-05-15T12:42:10.915Z,81.70
2018-05-15T12:44:38.102Z,86.70
2018-05-15T12:47:05.586Z,87.30
2018-05-15T12:49:33.008Z,90.00
2018-05-15T12:52:00.440Z,86.50
2018-05-15T12:54:28.639Z,88.80
2018-05-15T12:56:56.062Z,88.90
2018-05-15T12:59:24.259Z,88.00
2018-05-15T13:01:52.459Z,82.80
2018-05-15T13:04:19.874Z,82.80
2018-05-15T13:06:48.084Z,79.80
2018-05-15T13:09:15.516Z,79.70
2018-05-15T13:11:43.716Z,82.80
2018-05-15T13:14:11.148Z,82.80
2018-05-15T13:16:39.347Z,79.00
2018-05-15T13:19:06.770Z,78.90
2018-05-15T13:21:35.083Z,81.90
2018-05-15T13:24:02.744Z,82.00
2018-05-15T13:26:30.187Z,85.80
2018-05-15T13:28:57.626Z,77.00
2018-05-15T13:31:25.830Z,79.00
2018-05-15T13:33:53.263Z,78.80
2018-05-15T13:36:20.706Z,78.70
2018-05-15T13:38:48.898Z,73.80
2018-05-15T13:41:16.336Z,73.70
2018-05-15T13:43:44.534Z,76.50
2018-05-15T13:46:11.975Z,76.30
2018-05-15T13:48:40.188Z,72.90
2018-05-15T13:51:07.623Z,72.70
2018-05-15T13:53:35.132Z,68.00
2018-05-15T13:56:03.251Z,66.50
2018-05-15T13:58:30.688Z,66.40
2018-05-15T14:00:58.122Z,71.10
2018-05-15T14:03:25.551Z,71.70
2018-05-15T14:05:52.999Z,75.40
2018-05-15T14:08:20.451Z,75.70
2018-05-15T14:10:47.870Z,76.80
2018-05-15T14:13:16.082Z,75.20
2018-05-15T14:15:43.508Z,75.20
2018-05-15T14:18:11.713Z,69.00
2018-05-15T14:20:39.139Z,69.00
2018-05-15T14:23:07.345Z,63.60
2018-05-15T14:25:34.775Z,63.70
2018-05-15T14:28:02.238Z,58.70
2018-05-15T14:30:29.658Z,55.60
2018-05-15T14:32:57.114Z,58.00
2018-05-15T14:35:24.532Z,57.10
2018-05-15T14:37:51.984Z,64.10
2018-05-15T14:40:19.410Z,61.60
2018-05-15T14:42:59.515Z,59.30
2018-05-15T14:45:27.656Z,59.10
2018-05-15T14:47:55.088Z,59.10
2018-05-15T14:50:23.278Z,60.50
2018-05-15T14:52:50.711Z,60.40
2018-05-15T14:55:19.033Z,59.50
2018-05-15T14:57:46.455Z,58.90
2018-05-15T15:00:15.326Z,59.20
2018-05-15T15:02:42.761Z,59.10
2018-05-15T15:05:10.184Z,56.20
2018-05-15T15:07:37.618Z,58.40
2018-05-15T15:10:05.838Z,58.00
2018-05-15T15:12:33.272Z,58.00
2018-05-15T15:15:00.694Z,55.00
2018-05-15T15:17:28.984Z,51.70
2018-05-15T15:19:56.318Z,51.70
2018-05-15T15:22:24.518Z,49.90
2018-05-15T15:24:51.943Z,49.70
2018-05-15T15:27:19.378Z,50.70
2018-05-15T15:29:46.833Z,51.60
2018-05-15T15:32:14.259Z,53.90
2018-05-15T15:34:41.695Z,53.00
2018-05-15T15:37:09.894Z,52.70
2018-05-15T15:39:37.314Z,52.60
2018-05-15T15:42:05.754Z,51.10
2018-05-15T15:44:33.471Z,51.00
2018-05-15T15:47:00.890Z,51.20
2018-05-15T15:49:28.325Z,51.60
2018-05-15T15:51:55.743Z,57.20
2018-05-15T15:54:23.178Z,56.20
2018-05-15T15:56:51.380Z,54.60
2018-05-15T15:59:18.816Z,54.60
2018-05-15T16:01:47.023Z,56.50
2018-05-15T16:04:14.442Z,56.50
2018-05-15T16:06:42.634Z,56.20
2018-05-15T16:09:10.070Z,56.10
2018-05-15T16:11:38.270Z,57.80
2018-05-15T16:14:05.718Z,58.20
2018-05-15T16:16:33.907Z,57.40
2018-05-15T16:19:01.352Z,57.40
2018-05-15T16:21:29.543Z,57.60
2018-05-15T16:23:56.970Z,57.60
2018-05-15T16:26:25.183Z,59.10
2018-05-15T16:28:52.610Z,59.10
2018-05-15T16:31:20.037Z,57.70
2018-05-15T16:33:47.473Z,60.70
2018-05-15T16:36:14.890Z,56.40
2018-05-15T16:38:42.327Z,62.00
2018-05-15T16:41:10.523Z,61.00
2018-05-15T16:43:37.959Z,61.00
2018-05-15T16:46:06.166Z,60.40
2018-05-15T16:48:33.621Z,60.40
2018-05-15T16:51:01.043Z,61.50
2018-05-15T16:53:29.314Z,57.90
2018-05-15T16:55:56.674Z,57.80
2018-05-15T16:58:24.887Z,61.20
2018-05-15T17:00:52.323Z,61.00
2018-05-15T17:03:19.743Z,63.80
2018-05-15T17:05:47.178Z,65.50
2018-05-15T17:08:14.703Z,65.60
2018-05-15T17:10:42.047Z,66.70
2018-05-15T17:13:09.473Z,68.30
2018-05-15T17:15:36.911Z,69.50
2018-05-15T17:18:04.495Z,71.00
2018-05-15T17:20:33.697Z,71.90
2018-05-15T17:23:01.895Z,70.20
2018-05-15T17:25:29.417Z,70.20
2018-05-15T17:27:57.542Z,68.20
2018-05-15T17:30:24.975Z,68.20
2018-05-15T17:32:53.170Z,67.40
2018-05-15T17:35:20.612Z,67.40
2018-05-15T17:37:48.807Z,67.30
2018-05-15T17:40:16.234Z,68.00
2018-05-15T17:42:44.437Z,65.90
2018-05-15T17:45:11.868Z,65.90
2018-05-15T17:47:40.061Z,66.40
2018-05-15T17:50:08.727Z,66.50
2018-05-15T17:52:36.170Z,66.50
2018-05-15T17:55:03.609Z,66.50
2018-05-15T17:57:31.028Z,66.90
2018-05-15T17:59:59.333Z,68.50
2018-05-15T18:02:26.703Z,68.40
2018-05-15T18:04:54.154Z,72.90
2018-05-15T18:07:21.578Z,77.20
2018-05-15T18:09:49.783Z,72.30
2018-05-15T18:12:17.206Z,72.30
2018-05-15T18:14:45.412Z,66.30
2018-05-15T18:17:12.844Z,66.30
2018-05-15T18:19:41.055Z,66.70
2018-05-15T18:22:08.502Z,66.70
2018-05-15T18:24:36.035Z,66.70
2018-05-15T18:27:04.235Z,68.00
2018-05-15T18:29:31.681Z,68.00
2018-05-15T18:31:59.117Z,69.30
2018-05-15T18:34:27.310Z,70.50
2018-05-15T18:36:54.752Z,70.40
2018-05-15T18:39:22.949Z,71.60
2018-05-15T18:41:50.375Z,71.60
2018-05-15T18:44:18.570Z,72.50
2018-05-15T18:46:46.003Z,72.50
2018-05-15T18:49:13.426Z,73.30
2018-05-15T18:51:40.914Z,74.40
2018-05-15T18:54:09.111Z,74.80
2018-05-15T18:56:36.542Z,74.80
2018-05-15T18:59:03.954Z,76.70
2018-05-15T19:01:31.389Z,77.20
2018-05-15T19:03:58.911Z,77.10
2018-05-15T19:06:26.339Z,77.40
2018-05-15T19:08:53.778Z,77.60
2018-05-15T19:11:21.211Z,77.80
2018-05-15T19:13:48.678Z,78.60
2018-05-15T19:16:16.935Z,79.80
2018-05-15T19:18:44.483Z,80.40
2018-05-15T19:21:12.034Z,81.00
2018-05-15T19:23:39.547Z,81.40
2018-05-15T19:26:07.738Z,83.90
2018-05-15T19:28:35.175Z,83.90
2018-05-15T19:31:03.370Z,84.90
2018-05-15T19:33:36.547Z,84.90
2018-05-15T19:36:10.999Z,85.80
2018-05-15T19:38:38.470Z,86.80
2018-05-15T19:41:06.677Z,85.10
2018-05-15T19:43:34.872Z,87.90
2018-05-15T19:46:02.307Z,87.90
2018-05-15T19:48:30.939Z,88.00
2018-05-15T19:50:58.350Z,87.90
2018-05-15T19:53:26.548Z,88.00
2018-05-15T19:55:53.982Z,87.90
2018-05-15T19:58:22.201Z,88.90
2018-05-15T20:00:49.650Z,89.00
2018-05-15T20:03:17.079Z,90.00
2018-05-15T20:05:45.278Z,90.10
2018-05-15T20:08:12.703Z,90.10
2018-05-15T20:10:40.910Z,91.10
2018-05-15T20:13:08.341Z,91.10
2018-05-15T20:15:36.540Z,90.90
2018-05-15T20:18:03.969Z,90.90
2018-05-15T20:20:32.159Z,91.40
2018-05-15T20:22:59.595Z,91.40
2018-05-15T20:25:27.786Z,92.20
2018-05-15T20:27:55.219Z,92.20
2018-05-15T20:30:23.414Z,92.30
2018-05-15T20:32:50.856Z,92.30
2018-05-15T20:35:19.050Z,92.70
2018-05-15T20:37:46.479Z,92.70
2018-05-15T20:40:14.680Z,92.60
2018-05-15T20:42:42.111Z,92.60
2018-05-15T20:45:10.311Z,93.10
2018-05-15T20:47:37.746Z,93.10
2018-05-15T20:50:05.947Z,93.30
2018-05-15T20:52:33.391Z,93.30
2018-05-15T20:55:00.815Z,93.50
2018-05-15T20:57:28.411Z,93.10
2018-05-15T20:59:55.835Z,93.50
2018-05-15T21:02:23.287Z,93.40
2018-05-15T21:04:50.723Z,93.40
2018-05-15T21:07:18.154Z,93.80
2018-05-15T21:09:45.594Z,93.70
2018-05-15T21:12:13.020Z,93.80
2018-05-15T21:14:40.455Z,93.50
2018-05-15T21:17:07.896Z,93.70
2018-05-15T21:19:35.323Z,94.00
2018-05-15T21:22:02.762Z,94.00
2018-05-15T21:24:30.968Z,94.30
2018-05-15T21:26:58.403Z,94.30
2018-05-15T21:29:25.866Z,94.40
2018-05-15T21:31:53.271Z,94.40
2018-05-15T21:34:20.702Z,94.70
2018-05-15T21:36:48.159Z,94.80
2018-05-15T21:39:15.620Z,95.10
2018-05-15T21:41:43.051Z,95.40
2018-05-15T21:44:10.505Z,95.70
2018-05-15T21:46:37.942Z,95.80
2018-05-15T21:49:06.153Z,96.00
2018-05-15T21:51:33.567Z,96.00
2018-05-15T21:54:01.768Z,96.30
2018-05-15T21:56:29.194Z,96.30
2018-05-15T21:58:57.430Z,96.30
2018-05-15T22:01:24.877Z,96.30
2018-05-15T22:03:52.333Z,96.70
2018-05-15T22:06:19.783Z,97.30
2018-05-15T22:08:47.214Z,97.10
2018-05-15T22:11:14.163Z,96.70
2018-05-15T22:13:54.199Z,96.50
2018-05-15T22:16:34.354Z,96.60
2018-05-15T22:19:14.377Z,96.40
2018-05-15T22:21:53.789Z,96.40
2018-05-15T22:24:25.531Z,96.40
2018-05-15T22:26:53.694Z,96.80
2018-05-15T22:29:21.130Z,96.80
2018-05-15T22:31:49.334Z,96.50
2018-05-15T22:34:16.774Z,96.50
2018-05-15T22:36:44.981Z,96.70
2018-05-15T22:39:12.414Z,96.70
2018-05-15T22:41:39.925Z,96.70
2018-05-15T22:44:08.046Z,96.60
2018-05-15T22:46:35.478Z,96.60
2018-05-15T22:49:03.695Z,96.80
2018-05-15T22:51:31.134Z,96.80
2018-05-15T22:53:58.571Z,97.00
2018-05-15T22:56:26.798Z,97.00
2018-05-15T22:58:55.983Z,96.90
2018-05-15T23:01:23.414Z,96.90
2018-05-15T23:03:50.856Z,97.00
2018-05-15T23:06:19.052Z,97.00
2018-05-15T23:08:46.489Z,97.00
2018-05-15T23:11:14.696Z,97.00
2018-05-15T23:13:42.135Z,97.00
2018-05-15T23:16:09.567Z,96.90
2018-05-15T23:18:36.998Z,97.00
2018-05-15T23:21:04.422Z,97.00
2018-05-15T23:23:31.863Z,97.00
2018-05-15T23:25:59.297Z,97.20
2018-05-15T23:28:27.499Z,97.10
2018-05-15T23:30:54.935Z,97.10
2018-05-15T23:33:23.135Z,97.00
2018-05-15T23:35:50.570Z,97.40
2018-05-15T23:38:18.010Z,96.60
2018-05-15T23:40:45.438Z,97.00
2018-05-15T23:43:12.875Z,96.60
2018-05-15T23:45:40.322Z,96.90
2018-05-15T23:48:07.758Z,97.30
2018-05-15T23:50:35.198Z,97.00
2018-05-15T23:53:03.439Z,97.40
2018-05-15T23:55:30.874Z,97.40
2018-05-15T23:57:58.310Z,98.10
